Burghead, United Kingdom
Current Conditions -  °F | °C
As of 6:50 PM on Friday 21 Nov 2014 (Local Time) from EGQK Reporting Station
Broken Clouds Broken Clouds  
Wind Chill: 42°   Ceiling: 2600
Heat Index: 48°   Visibility: 6mi
Dew Point: 43°   Wind: 15mph
Humidity: 82%   Direction: 120°ESE
Pressure: 29.91"   Gusts: NA
Location:  57.7°N, 3.49°W
Report Text: EGQK 211850Z AUTO 12013KT 9999 BKN026/// SCT034/// 09/06 Q1013
Loading
Personal Weather Stations






























Interactive Weather Map New forecast layout! Learn more

10-Day Weather Forecast

Advertisements
Track Severe Weather on mobile